createdAt,value
2023-05-19T00:00:19.685Z,15.18
2023-05-19T00:01:19.719Z,15.16
2023-05-19T00:02:19.765Z,15.15
2023-05-19T00:03:19.960Z,15.22
2023-05-19T00:04:19.827Z,15.13
2023-05-19T00:05:19.974Z,15.18
2023-05-19T00:06:20.023Z,15.17
2023-05-19T00:07:19.970Z,15.19
2023-05-19T00:08:20.051Z,15.18
2023-05-19T00:09:20.061Z,15.22
2023-05-19T00:10:20.171Z,15.25
2023-05-19T00:11:20.143Z,15.26
2023-05-19T00:12:20.214Z,15.16
2023-05-19T00:13:20.204Z,15.12
2023-05-19T00:14:20.207Z,15.08
2023-05-19T00:15:20.201Z,15.07
2023-05-19T00:16:20.290Z,15.11
2023-05-19T00:17:20.257Z,15.09
2023-05-19T00:18:20.317Z,15.08
2023-05-19T00:19:20.402Z,15.00
2023-05-19T00:20:20.356Z,14.93
2023-05-19T00:21:20.293Z,14.88
2023-05-19T00:22:20.292Z,14.72
2023-05-19T00:23:20.335Z,14.57
2023-05-19T00:24:20.328Z,14.50
2023-05-19T00:25:20.331Z,14.64
2023-05-19T00:26:20.302Z,14.73
2023-05-19T00:27:20.337Z,14.62
2023-05-19T00:28:20.379Z,14.53
2023-05-19T00:29:20.459Z,14.54
2023-05-19T00:30:20.424Z,14.52
2023-05-19T00:31:20.456Z,14.41
2023-05-19T00:32:20.425Z,14.39
2023-05-19T00:33:20.425Z,14.34
2023-05-19T00:34:20.402Z,14.37
2023-05-19T00:35:20.377Z,14.25
2023-05-19T00:36:20.382Z,14.25
2023-05-19T00:37:20.349Z,14.18
2023-05-19T00:38:20.381Z,14.24
2023-05-19T00:39:20.392Z,14.40
2023-05-19T00:40:20.389Z,14.34
2023-05-19T00:41:20.343Z,14.18
2023-05-19T00:42:20.327Z,14.03
2023-05-19T00:43:20.343Z,13.91
2023-05-19T00:44:20.382Z,13.69
2023-05-19T00:45:20.338Z,13.58
2023-05-19T00:46:20.415Z,13.60
2023-05-19T00:47:20.297Z,13.56
2023-05-19T00:48:20.300Z,13.44
2023-05-19T00:49:20.283Z,13.42
2023-05-19T00:50:20.292Z,13.38
2023-05-19T00:51:20.266Z,13.42
2023-05-19T00:52:20.260Z,13.57
2023-05-19T00:53:20.248Z,13.55
2023-05-19T00:54:20.209Z,13.62
2023-05-19T00:55:20.324Z,13.82
2023-05-19T00:56:20.213Z,13.93
2023-05-19T00:57:20.243Z,14.09
2023-05-19T00:58:20.223Z,14.07
2023-05-19T00:59:20.211Z,13.99
2023-05-19T01:00:20.208Z,13.84
2023-05-19T01:01:20.249Z,13.67
2023-05-19T01:02:20.239Z,13.69
2023-05-19T01:03:20.358Z,13.77
2023-05-19T01:04:20.159Z,13.84
2023-05-19T01:05:20.186Z,13.79
2023-05-19T01:06:20.213Z,13.80
2023-05-19T01:07:20.244Z,13.79
2023-05-19T01:08:20.321Z,13.77
2023-05-19T01:09:20.312Z,13.67
2023-05-19T01:10:20.413Z,13.60
2023-05-19T01:11:20.405Z,13.54
2023-05-19T01:12:20.464Z,13.50
2023-05-19T01:13:20.512Z,13.67
2023-05-19T01:14:20.550Z,13.74
2023-05-19T01:15:20.585Z,13.75
2023-05-19T01:16:20.675Z,13.66
2023-05-19T01:17:20.675Z,13.64
2023-05-19T01:18:20.670Z,13.63
2023-05-19T01:19:20.857Z,13.60
2023-05-19T01:20:20.656Z,13.58
2023-05-19T01:21:20.683Z,13.55
2023-05-19T01:22:20.698Z,13.63
2023-05-19T01:23:20.689Z,13.58
2023-05-19T01:24:20.657Z,13.61
2023-05-19T01:25:20.708Z,13.56
2023-05-19T01:26:20.692Z,13.50
2023-05-19T01:27:20.621Z,13.63
2023-05-19T01:28:20.649Z,13.60
2023-05-19T01:29:20.603Z,13.58
2023-05-19T01:30:20.649Z,13.58
2023-05-19T01:31:20.640Z,13.62
2023-05-19T01:32:20.688Z,13.61
2023-05-19T01:33:20.599Z,13.78
2023-05-19T01:34:20.606Z,13.95
2023-05-19T01:35:20.580Z,13.89
2023-05-19T01:36:20.627Z,13.85
2023-05-19T01:37:20.570Z,13.88
2023-05-19T01:38:20.535Z,13.80
2023-05-19T01:39:20.553Z,13.76
2023-05-19T01:40:20.628Z,13.74
2023-05-19T01:41:20.560Z,13.82
2023-05-19T01:42:20.545Z,13.67
2023-05-19T01:43:20.569Z,13.53
2023-05-19T01:44:20.543Z,13.59
2023-05-19T01:45:20.555Z,13.66
2023-05-19T01:46:20.505Z,13.64
2023-05-19T01:47:20.485Z,13.61
2023-05-19T01:48:20.543Z,13.58
2023-05-19T01:49:20.517Z,13.65
2023-05-19T01:50:20.511Z,13.73
2023-05-19T01:51:20.530Z,13.89
2023-05-19T01:52:20.456Z,13.83
2023-05-19T01:53:20.461Z,13.80
2023-05-19T01:54:20.433Z,13.83
2023-05-19T01:55:20.501Z,13.89
2023-05-19T01:56:20.469Z,14.08
2023-05-19T01:57:20.451Z,14.21
2023-05-19T01:58:20.442Z,14.12
2023-05-19T01:59:20.409Z,14.27
2023-05-19T02:00:21.327Z,14.26
2023-05-19T02:01:20.439Z,14.09
2023-05-19T02:02:20.449Z,14.21
2023-05-19T02:03:20.403Z,14.26
2023-05-19T02:04:20.443Z,14.35
2023-05-19T02:05:20.360Z,14.48
2023-05-19T02:06:20.424Z,14.46
2023-05-19T02:07:20.406Z,14.31
2023-05-19T02:08:20.421Z,14.14
2023-05-19T02:09:20.457Z,14.09
2023-05-19T02:10:20.487Z,14.16
2023-05-19T02:11:20.504Z,14.01
2023-05-19T02:12:20.539Z,13.92
2023-05-19T02:13:20.552Z,13.85
2023-05-19T02:14:20.615Z,13.80
2023-05-19T02:15:20.681Z,13.65
2023-05-19T02:16:20.867Z,13.54
2023-05-19T02:17:20.745Z,13.52
2023-05-19T02:18:20.801Z,13.62
2023-05-19T02:19:21.009Z,13.84
2023-05-19T02:20:20.877Z,14.01
2023-05-19T02:21:20.898Z,14.15
2023-05-19T02:22:20.874Z,14.10
2023-05-19T02:23:20.911Z,14.17
2023-05-19T02:24:20.925Z,14.05
2023-05-19T02:25:20.951Z,13.89
2023-05-19T02:26:20.957Z,13.72
2023-05-19T02:27:20.951Z,13.70
2023-05-19T02:28:21.002Z,13.56
2023-05-19T02:29:21.080Z,13.47
2023-05-19T02:30:21.083Z,13.64
2023-05-19T02:31:21.164Z,13.83
2023-05-19T02:32:21.142Z,14.00
2023-05-19T02:33:21.133Z,14.13
2023-05-19T02:34:21.192Z,14.20
2023-05-19T02:35:21.179Z,14.26
2023-05-19T02:36:21.206Z,14.32
2023-05-19T02:37:21.194Z,14.07
2023-05-19T02:38:21.169Z,13.75
2023-05-19T02:39:21.198Z,13.78
2023-05-19T02:40:21.188Z,13.94
2023-05-19T02:41:21.146Z,14.13
2023-05-19T02:42:21.155Z,14.09
2023-05-19T02:43:21.165Z,13.92
2023-05-19T02:44:21.116Z,13.71
2023-05-19T02:45:21.206Z,13.52
2023-05-19T02:46:21.150Z,13.42
2023-05-19T02:47:21.248Z,13.34
2023-05-19T02:48:21.213Z,13.23
2023-05-19T02:49:21.256Z,13.15
2023-05-19T02:50:21.223Z,13.21
2023-05-19T02:51:21.285Z,13.29
2023-05-19T02:52:21.237Z,13.56
2023-05-19T02:53:21.227Z,13.80
2023-05-19T02:54:21.231Z,13.84
2023-05-19T02:55:21.234Z,13.86
2023-05-19T02:56:21.213Z,13.97
2023-05-19T02:57:21.250Z,14.13
2023-05-19T02:58:21.180Z,14.25
2023-05-19T02:59:21.176Z,14.41
2023-05-19T03:00:21.234Z,14.40
2023-05-19T03:01:21.351Z,14.37
2023-05-19T03:02:21.298Z,14.41
2023-05-19T03:03:21.363Z,14.45
2023-05-19T03:04:21.312Z,14.41
2023-05-19T03:05:21.745Z,14.44
2023-05-19T03:06:21.424Z,14.46
2023-05-19T03:07:21.496Z,14.28
2023-05-19T03:08:21.599Z,14.13
2023-05-19T03:09:21.618Z,14.21
2023-05-19T03:10:21.670Z,14.04
2023-05-19T03:11:21.680Z,14.05
2023-05-19T03:12:21.847Z,14.21
2023-05-19T03:13:21.808Z,14.33
2023-05-19T03:14:21.863Z,14.42
2023-05-19T03:15:21.859Z,14.52
2023-05-19T03:16:22.782Z,14.45
2023-05-19T03:17:22.047Z,14.36
2023-05-19T03:18:21.985Z,14.42
2023-05-19T03:19:22.131Z,14.45
2023-05-19T03:20:22.044Z,14.59
2023-05-19T03:21:22.083Z,14.61
2023-05-19T03:22:22.162Z,14.65
2023-05-19T03:23:22.198Z,14.68
2023-05-19T03:24:22.229Z,14.74
2023-05-19T03:25:22.297Z,14.67
2023-05-19T03:26:22.294Z,14.67
2023-05-19T03:27:22.387Z,14.70
2023-05-19T03:28:22.410Z,14.69
2023-05-19T03:29:22.389Z,14.73
2023-05-19T03:30:22.508Z,14.75
2023-05-19T03:31:22.380Z,14.36
2023-05-19T03:32:22.454Z,14.10
2023-05-19T03:33:22.612Z,13.81
2023-05-19T03:34:22.410Z,13.51
2023-05-19T03:35:22.453Z,13.35
2023-05-19T03:36:22.448Z,13.48
2023-05-19T03:37:22.457Z,13.61
2023-05-19T03:38:22.534Z,13.55
2023-05-19T03:39:22.558Z,13.37
2023-05-19T03:40:22.593Z,13.37
2023-05-19T03:41:22.653Z,13.43
2023-05-19T03:42:22.677Z,13.37
2023-05-19T03:43:22.695Z,13.34
2023-05-19T03:44:22.753Z,13.17
2023-05-19T03:45:22.722Z,13.11
2023-05-19T03:46:22.846Z,13.07
2023-05-19T03:47:22.767Z,12.94
2023-05-19T03:48:22.752Z,12.93
2023-05-19T03:49:22.771Z,12.93
2023-05-19T03:50:22.777Z,13.08
2023-05-19T03:51:22.835Z,13.33
2023-05-19T03:52:22.881Z,13.42
2023-05-19T03:53:22.974Z,13.53
2023-05-19T03:54:23.027Z,13.69
2023-05-19T03:55:23.095Z,13.87
2023-05-19T03:56:23.038Z,14.02
2023-05-19T03:57:23.090Z,14.16
2023-05-19T03:58:23.100Z,14.25
2023-05-19T03:59:23.095Z,13.87
2023-05-19T04:00:23.124Z,13.72
2023-05-19T04:01:23.106Z,13.69
2023-05-19T04:02:23.216Z,13.65
2023-05-19T04:03:23.268Z,13.61
2023-05-19T04:04:23.247Z,13.74
2023-05-19T04:05:23.286Z,13.66
2023-05-19T04:06:23.300Z,13.49
2023-05-19T04:07:23.395Z,13.32
2023-05-19T04:08:23.437Z,13.35
2023-05-19T04:09:23.506Z,13.26
2023-05-19T04:10:23.571Z,13.23
2023-05-19T04:11:23.598Z,13.43
2023-05-19T04:12:23.662Z,13.42
2023-05-19T04:13:23.742Z,13.39
2023-05-19T04:14:23.806Z,13.23
2023-05-19T04:15:23.850Z,13.20
2023-05-19T04:16:24.051Z,13.23
2023-05-19T04:17:23.982Z,13.25
2023-05-19T04:18:24.474Z,13.18
2023-05-19T04:19:24.174Z,13.08
2023-05-19T04:20:24.189Z,13.20
2023-05-19T04:21:24.227Z,13.52
2023-05-19T04:22:24.267Z,13.80
2023-05-19T04:23:24.307Z,14.00
2023-05-19T04:24:24.375Z,14.20
2023-05-19T04:25:24.438Z,14.40
2023-05-19T04:26:25.256Z,14.51
2023-05-19T04:27:24.494Z,14.55
2023-05-19T04:28:24.518Z,14.62
2023-05-19T04:29:24.529Z,14.68
2023-05-19T04:30:24.546Z,14.75
2023-05-19T04:31:25.278Z,14.77
2023-05-19T04:32:24.593Z,14.71
2023-05-19T04:33:24.599Z,14.73
2023-05-19T04:34:24.580Z,14.84
2023-05-19T04:35:24.634Z,14.86
2023-05-19T04:36:24.663Z,14.98
2023-05-19T04:37:24.662Z,15.02
2023-05-19T04:38:24.712Z,14.99
2023-05-19T04:39:24.733Z,14.93
2023-05-19T04:40:24.743Z,14.92
2023-05-19T04:41:24.780Z,15.01
2023-05-19T04:42:24.842Z,15.07
2023-05-19T04:43:24.794Z,15.09
2023-05-19T04:44:24.792Z,15.13
2023-05-19T04:45:24.814Z,15.22
2023-05-19T04:46:24.860Z,15.26
2023-05-19T04:47:24.866Z,15.29
2023-05-19T04:48:24.847Z,15.28
2023-05-19T04:49:24.862Z,15.33
2023-05-19T04:50:24.924Z,15.28
2023-05-19T04:51:24.933Z,15.35
2023-05-19T04:52:24.964Z,15.31
2023-05-19T04:53:24.948Z,15.16
2023-05-19T04:54:25.004Z,15.14
2023-05-19T04:55:25.130Z,15.16
2023-05-19T04:56:25.080Z,14.99
2023-05-19T04:57:25.076Z,14.82
2023-05-19T04:58:25.091Z,14.94
2023-05-19T04:59:25.132Z,15.05
2023-05-19T05:01:52.915Z,15.05
2023-05-19T05:02:45.179Z,15.12
2023-05-19T05:03:45.263Z,15.16
2023-05-19T05:04:45.152Z,15.15
2023-05-19T05:05:45.168Z,15.25
2023-05-19T05:06:45.119Z,15.24
2023-05-19T05:07:45.104Z,15.14
2023-05-19T05:08:45.160Z,14.93
2023-05-19T05:09:45.165Z,15.03
2023-05-19T05:10:45.141Z,15.13
2023-05-19T05:11:45.246Z,15.19
2023-05-19T05:12:45.112Z,15.14
2023-05-19T05:13:45.102Z,15.01
2023-05-19T05:14:45.121Z,15.00
2023-05-19T05:15:45.142Z,14.88
2023-05-19T05:16:45.212Z,14.89
2023-05-19T05:17:45.141Z,14.97
2023-05-19T05:18:45.218Z,14.97
2023-05-19T05:19:45.034Z,14.87
2023-05-19T05:20:45.038Z,14.86
2023-05-19T05:21:45.082Z,14.84
2023-05-19T05:22:45.094Z,14.78
2023-05-19T05:23:45.122Z,14.79
2023-05-19T05:24:45.161Z,14.89
2023-05-19T05:25:45.241Z,14.92
2023-05-19T05:26:45.291Z,15.02
2023-05-19T05:27:45.321Z,15.05
2023-05-19T05:28:45.412Z,15.09
2023-05-19T05:29:45.452Z,15.10
2023-05-19T05:30:45.433Z,15.16
2023-05-19T05:31:45.470Z,15.25
2023-05-19T05:32:45.587Z,15.29
2023-05-19T05:33:45.587Z,15.30
2023-05-19T05:34:45.507Z,15.10
2023-05-19T05:35:45.555Z,14.98
2023-05-19T05:36:45.596Z,15.06
2023-05-19T05:37:45.709Z,15.15
2023-05-19T05:38:45.708Z,15.07
2023-05-19T05:39:45.782Z,15.22
2023-05-19T05:40:45.789Z,15.41
2023-05-19T05:41:45.843Z,15.43
2023-05-19T05:42:45.848Z,15.50
2023-05-19T05:43:45.855Z,15.54
2023-05-19T05:44:45.874Z,15.31
2023-05-19T05:45:46.025Z,15.23
2023-05-19T05:46:54.766Z,15.34
2023-05-19T05:47:46.381Z,15.45
2023-05-19T05:48:46.110Z,15.60
2023-05-19T05:49:46.054Z,15.63
2023-05-19T05:50:46.063Z,15.58
2023-05-19T05:51:58.001Z,15.55
2023-05-19T05:52:46.072Z,15.54
2023-05-19T05:53:46.075Z,15.58
2023-05-19T05:54:45.988Z,15.67
2023-05-19T05:55:46.013Z,15.77
2023-05-19T05:56:46.026Z,15.88
2023-05-19T05:57:46.028Z,15.68
2023-05-19T05:58:46.109Z,15.50
2023-05-19T05:59:45.953Z,15.51
2023-05-19T06:00:45.956Z,15.46
2023-05-19T06:01:46.035Z,15.51
2023-05-19T06:02:46.057Z,15.51
2023-05-19T06:03:46.081Z,15.66
2023-05-19T06:04:46.076Z,15.69
2023-05-19T06:05:46.907Z,15.44
2023-05-19T06:06:46.079Z,15.30
2023-05-19T06:07:45.976Z,15.02
2023-05-19T06:08:45.943Z,15.03
2023-05-19T06:09:45.972Z,14.89
2023-05-19T06:10:47.338Z,14.96
2023-05-19T06:11:46.008Z,15.16
2023-05-19T06:12:45.890Z,15.37
2023-05-19T06:13:46.034Z,15.52
2023-05-19T06:14:46.048Z,15.60
2023-05-19T06:15:46.061Z,15.71
2023-05-19T06:16:46.018Z,15.83
2023-05-19T06:17:45.984Z,16.05
2023-05-19T06:18:46.604Z,16.25
2023-05-19T06:19:45.914Z,16.12
2023-05-19T06:20:45.854Z,16.12
2023-05-19T06:21:45.884Z,15.93
2023-05-19T06:22:45.988Z,16.13
2023-05-19T06:23:45.803Z,16.32
2023-05-19T06:24:45.932Z,16.37
2023-05-19T06:25:45.891Z,16.39
2023-05-19T06:26:46.435Z,16.18
2023-05-19T06:27:46.075Z,16.10
2023-05-19T06:28:46.133Z,16.02
2023-05-19T06:29:46.109Z,15.69
2023-05-19T06:30:46.239Z,15.41
2023-05-19T06:31:46.548Z,15.10
2023-05-19T06:32:46.344Z,14.90
2023-05-19T06:33:48.281Z,14.90
2023-05-19T06:34:46.501Z,14.91
2023-05-19T06:35:46.505Z,14.97
2023-05-19T06:36:46.610Z,15.05
2023-05-19T06:37:46.610Z,15.21
2023-05-19T06:38:46.625Z,15.46
2023-05-19T06:39:46.622Z,15.72
2023-05-19T06:40:47.585Z,15.90
2023-05-19T06:41:46.558Z,16.06
2023-05-19T06:42:46.570Z,16.20
2023-05-19T06:43:46.587Z,16.29
2023-05-19T06:44:46.562Z,16.32
2023-05-19T06:45:46.592Z,16.41
2023-05-19T06:46:46.611Z,16.55
2023-05-19T06:47:47.468Z,16.65
2023-05-19T06:48:46.652Z,16.47
2023-05-19T06:49:46.582Z,16.45
2023-05-19T06:50:47.405Z,16.71
2023-05-19T06:51:48.125Z,16.95
2023-05-19T06:52:46.474Z,16.79
2023-05-19T06:53:46.488Z,16.74
2023-05-19T06:54:46.425Z,16.96
2023-05-19T06:55:58.112Z,17.01
2023-05-19T06:56:49.105Z,17.12
2023-05-19T06:57:47.882Z,17.07
2023-05-19T06:58:46.580Z,16.90
2023-05-19T06:59:46.551Z,16.87
2023-05-19T07:00:46.357Z,17.08
2023-05-19T07:01:46.466Z,17.04
2023-05-19T07:02:46.583Z,16.84
2023-05-19T07:03:46.544Z,16.81
2023-05-19T07:04:46.482Z,16.76
2023-05-19T07:05:46.488Z,16.86
2023-05-19T07:06:46.422Z,16.76
2023-05-19T07:07:46.487Z,16.82
2023-05-19T07:08:46.302Z,16.87
2023-05-19T07:09:46.417Z,16.86
2023-05-19T07:10:46.423Z,17.08
2023-05-19T07:11:46.404Z,16.93
2023-05-19T07:12:46.427Z,16.84
2023-05-19T07:13:46.423Z,16.92
2023-05-19T07:14:46.344Z,16.78
2023-05-19T07:15:46.262Z,16.65
2023-05-19T07:16:46.661Z,16.56
2023-05-19T07:17:46.423Z,16.73
2023-05-19T07:18:46.299Z,16.92
2023-05-19T07:19:46.256Z,17.09
2023-05-19T07:20:46.270Z,17.24
2023-05-19T07:21:46.877Z,17.27
2023-05-19T07:22:46.533Z,17.34
2023-05-19T07:23:46.410Z,17.45
2023-05-19T07:24:46.403Z,17.61
2023-05-19T07:25:46.427Z,17.61
2023-05-19T07:26:46.427Z,17.63
2023-05-19T07:27:46.494Z,17.78
2023-05-19T07:28:46.421Z,17.50
2023-05-19T07:29:46.343Z,17.52
2023-05-19T07:30:46.391Z,17.55
2023-05-19T07:31:46.382Z,17.63
2023-05-19T07:32:46.396Z,17.73
2023-05-19T07:33:46.392Z,17.50
2023-05-19T07:34:46.469Z,17.49
2023-05-19T07:35:46.361Z,17.51
2023-05-19T07:36:46.376Z,17.61
2023-05-19T07:37:46.319Z,17.65
2023-05-19T07:38:46.393Z,17.51
2023-05-19T07:39:46.380Z,17.24
2023-05-19T07:40:46.348Z,17.41
2023-05-19T07:41:46.355Z,17.55
2023-05-19T07:42:46.354Z,17.56
2023-05-19T07:43:46.359Z,17.36
2023-05-19T07:44:46.356Z,17.22
2023-05-19T07:45:46.442Z,17.36
2023-05-19T07:46:46.380Z,17.29
2023-05-19T07:47:46.408Z,17.10
2023-05-19T07:48:46.331Z,17.17
2023-05-19T07:49:46.337Z,17.24
2023-05-19T07:50:46.363Z,17.24
2023-05-19T07:51:46.302Z,17.12
2023-05-19T07:52:46.933Z,17.08
2023-05-19T07:53:46.207Z,17.25
2023-05-19T07:54:46.217Z,17.29
2023-05-19T07:55:46.210Z,17.27
2023-05-19T07:56:46.239Z,17.28
2023-05-19T07:57:46.294Z,16.93
2023-05-19T07:58:46.240Z,16.89
2023-05-19T07:59:46.242Z,17.01
2023-05-19T08:00:46.341Z,16.97
2023-05-19T08:01:46.569Z,17.10
2023-05-19T08:02:46.237Z,17.24
2023-05-19T08:03:46.239Z,17.45
2023-05-19T08:04:46.289Z,17.55
2023-05-19T08:05:46.894Z,17.59
2023-05-19T08:06:46.260Z,17.28
2023-05-19T08:07:46.190Z,17.17
2023-05-19T08:08:46.204Z,16.67
2023-05-19T08:09:46.218Z,16.56
2023-05-19T08:10:46.919Z,16.61
2023-05-19T08:11:46.274Z,16.48
2023-05-19T08:12:46.131Z,16.64
2023-05-19T08:13:46.108Z,16.86
2023-05-19T08:14:46.155Z,17.08
2023-05-19T08:15:46.091Z,17.16
2023-05-19T08:16:46.134Z,16.89
2023-05-19T08:17:46.118Z,16.55
2023-05-19T08:18:46.176Z,16.34
2023-05-19T08:19:46.116Z,16.40
2023-05-19T08:20:46.266Z,16.64
2023-05-19T08:21:46.777Z,16.91
2023-05-19T08:22:46.095Z,16.96
2023-05-19T08:23:46.185Z,17.09
2023-05-19T08:24:46.119Z,17.38
2023-05-19T08:25:46.053Z,17.72
2023-05-19T08:26:46.185Z,17.99
2023-05-19T08:27:46.109Z,18.14
2023-05-19T08:28:46.096Z,18.26
2023-05-19T08:29:46.130Z,18.40
2023-05-19T08:30:46.050Z,18.45
2023-05-19T08:31:46.102Z,18.36
2023-05-19T08:32:46.031Z,18.25
2023-05-19T08:33:46.061Z,18.46
2023-05-19T08:34:46.059Z,18.74
2023-05-19T08:35:45.983Z,18.91
2023-05-19T08:36:46.079Z,18.68
2023-05-19T08:37:47.030Z,18.44
2023-05-19T08:38:45.921Z,18.53
2023-05-19T08:39:45.993Z,18.71
2023-05-19T08:40:45.937Z,18.69
2023-05-19T08:41:46.045Z,18.60
2023-05-19T08:42:45.953Z,18.89
2023-05-19T08:43:45.991Z,19.13
2023-05-19T08:44:45.973Z,19.18
2023-05-19T08:45:46.093Z,19.33
2023-05-19T08:46:46.036Z,19.35
2023-05-19T08:47:46.005Z,19.38
2023-05-19T08:48:45.867Z,19.44
2023-05-19T08:49:45.966Z,19.50
2023-05-19T08:50:45.849Z,19.54
2023-05-19T08:51:46.406Z,19.38
2023-05-19T08:52:48.872Z,19.45
2023-05-19T08:53:45.998Z,19.47
2023-05-19T08:54:45.896Z,19.10
2023-05-19T08:55:45.813Z,19.19
2023-05-19T08:56:46.012Z,19.19
2023-05-19T08:57:45.848Z,19.27
2023-05-19T08:58:45.855Z,19.24
2023-05-19T08:59:45.915Z,19.37
2023-05-19T09:00:45.879Z,19.24
2023-05-19T09:01:45.954Z,19.09
2023-05-19T09:02:55.146Z,19.00
2023-05-19T09:03:46.888Z,19.08
2023-05-19T09:04:45.803Z,18.90
2023-05-19T09:05:45.829Z,18.90
2023-05-19T09:06:45.993Z,19.08
2023-05-19T09:07:45.986Z,19.21
2023-05-19T09:08:45.880Z,19.23
2023-05-19T09:09:45.756Z,19.34
2023-05-19T09:10:46.289Z,19.49
2023-05-19T09:11:46.449Z,19.44
2023-05-19T09:12:46.008Z,19.47
2023-05-19T09:13:45.796Z,19.38
2023-05-19T09:14:45.754Z,19.45
2023-05-19T09:15:45.831Z,19.30
2023-05-19T09:16:45.890Z,18.94
2023-05-19T09:17:45.973Z,18.82
2023-05-19T09:18:46.022Z,19.15
2023-05-19T09:19:45.947Z,19.33
2023-05-19T09:20:46.005Z,19.55
2023-05-19T09:21:45.989Z,19.26
2023-05-19T09:22:45.990Z,18.69
2023-05-19T09:23:46.069Z,18.63
2023-05-19T09:24:46.097Z,18.73
2023-05-19T09:25:46.222Z,18.36
2023-05-19T09:26:46.228Z,18.16
2023-05-19T09:27:46.224Z,18.33
2023-05-19T09:28:46.318Z,18.47
2023-05-19T09:29:46.344Z,18.67
2023-05-19T09:30:46.398Z,18.93
2023-05-19T09:31:46.513Z,18.87
2023-05-19T09:32:47.567Z,18.96
2023-05-19T09:33:46.476Z,19.11
2023-05-19T09:34:46.486Z,19.38
2023-05-19T09:35:46.400Z,19.63
2023-05-19T09:36:46.388Z,19.63
2023-05-19T09:37:46.382Z,19.58
2023-05-19T09:38:46.393Z,19.50
2023-05-19T09:39:46.394Z,19.71
2023-05-19T09:40:46.395Z,19.91
2023-05-19T09:41:46.919Z,19.92
2023-05-19T09:42:46.327Z,19.85
2023-05-19T09:43:46.348Z,20.04
2023-05-19T09:44:46.415Z,20.05
2023-05-19T09:45:46.467Z,20.07
2023-05-19T09:46:46.532Z,20.00
2023-05-19T09:47:46.579Z,20.14
2023-05-19T09:48:46.564Z,20.19
2023-05-19T09:49:46.595Z,20.32
2023-05-19T09:50:46.601Z,20.33
2023-05-19T09:51:46.707Z,20.24
2023-05-19T09:52:46.698Z,20.45
2023-05-19T09:53:46.709Z,20.57
2023-05-19T09:54:46.718Z,20.75
2023-05-19T09:55:46.818Z,20.47
2023-05-19T09:56:46.830Z,20.33
2023-05-19T09:57:47.056Z,20.52
2023-05-19T09:58:46.863Z,20.61
2023-05-19T09:59:46.937Z,20.66
2023-05-19T10:00:46.966Z,20.72
2023-05-19T10:01:47.125Z,20.97
2023-05-19T10:02:47.499Z,21.13
2023-05-19T10:03:47.093Z,21.16
2023-05-19T10:04:47.087Z,21.29
2023-05-19T10:05:47.098Z,21.30
2023-05-19T10:06:47.110Z,21.32
2023-05-19T10:07:47.212Z,21.23
2023-05-19T10:08:47.207Z,21.29
2023-05-19T10:09:47.227Z,21.24
2023-05-19T10:10:47.238Z,21.11
2023-05-19T10:11:47.259Z,20.99
2023-05-19T10:12:47.341Z,20.98
2023-05-19T10:13:47.355Z,21.02
2023-05-19T10:14:47.349Z,21.04
2023-05-19T10:15:58.113Z,21.03
2023-05-19T10:16:47.403Z,21.06
2023-05-19T10:17:47.412Z,21.13
2023-05-19T10:18:47.425Z,21.16
2023-05-19T10:19:47.345Z,21.22
2023-05-19T10:20:47.326Z,21.14
2023-05-19T10:21:47.296Z,21.04
2023-05-19T10:22:47.326Z,21.23
2023-05-19T10:23:47.334Z,21.52
2023-05-19T10:24:47.340Z,21.68
2023-05-19T10:25:47.322Z,21.91
2023-05-19T10:26:47.341Z,22.02
2023-05-19T10:27:47.334Z,22.21
2023-05-19T10:28:47.355Z,22.11
2023-05-19T10:29:47.370Z,22.18
2023-05-19T10:30:47.401Z,22.29
2023-05-19T10:31:47.485Z,22.22
2023-05-19T10:32:47.588Z,21.87
2023-05-19T10:33:47.490Z,21.40
2023-05-19T10:34:47.512Z,21.65
2023-05-19T10:35:47.491Z,21.83
2023-05-19T10:36:47.601Z,22.09
2023-05-19T10:37:47.684Z,21.93
2023-05-19T10:38:47.670Z,21.87
2023-05-19T10:39:47.636Z,22.03
2023-05-19T10:40:47.668Z,22.20
2023-05-19T10:41:47.883Z,22.21
2023-05-19T10:42:47.724Z,22.45
2023-05-19T10:43:47.688Z,22.53
2023-05-19T10:44:47.664Z,22.61
2023-05-19T10:45:47.677Z,22.88
2023-05-19T10:46:47.725Z,23.04
2023-05-19T10:47:47.746Z,23.03
2023-05-19T10:48:47.719Z,22.92
2023-05-19T10:49:47.619Z,22.52
2023-05-19T10:50:47.637Z,22.20
2023-05-19T10:51:47.624Z,22.22
2023-05-19T10:52:47.724Z,22.18
2023-05-19T10:53:47.749Z,22.36
2023-05-19T10:54:47.726Z,22.64
2023-05-19T10:55:47.749Z,22.71
2023-05-19T10:56:47.773Z,22.75
2023-05-19T10:57:47.976Z,22.89
2023-05-19T10:58:47.885Z,22.58
2023-05-19T10:59:47.974Z,22.64
2023-05-19T11:00:47.999Z,22.73
2023-05-19T11:01:48.027Z,22.83
2023-05-19T11:02:48.139Z,22.92
2023-05-19T11:03:48.170Z,22.93
2023-05-19T11:04:50.270Z,23.06
2023-05-19T11:05:48.117Z,23.22
2023-05-19T11:06:48.126Z,23.20
2023-05-19T11:07:48.113Z,23.01
2023-05-19T11:08:48.047Z,23.27
2023-05-19T11:09:48.066Z,23.22
2023-05-19T11:10:48.177Z,23.49
2023-05-19T11:11:48.105Z,23.51
2023-05-19T11:12:48.079Z,23.24
2023-05-19T11:13:48.074Z,23.00
2023-05-19T11:14:48.088Z,23.09
2023-05-19T11:15:48.009Z,23.24
2023-05-19T11:16:48.082Z,23.56
2023-05-19T11:17:48.123Z,23.68
2023-05-19T11:18:48.041Z,23.71
2023-05-19T11:19:48.033Z,23.79
2023-05-19T11:20:48.054Z,23.94
2023-05-19T11:21:48.067Z,24.02
2023-05-19T11:22:48.033Z,24.15
2023-05-19T11:23:48.031Z,24.27
2023-05-19T11:24:47.961Z,24.24
2023-05-19T11:25:48.043Z,24.11
2023-05-19T11:26:47.978Z,24.07
2023-05-19T11:27:47.972Z,23.50
2023-05-19T11:28:47.981Z,23.46
2023-05-19T11:29:47.981Z,23.62
2023-05-19T11:30:47.893Z,23.63
2023-05-19T11:31:47.959Z,23.45
2023-05-19T11:32:48.055Z,23.42
2023-05-19T11:33:47.916Z,23.37
2023-05-19T11:34:48.003Z,23.45
2023-05-19T11:35:47.931Z,23.63
2023-05-19T11:36:47.932Z,23.76
2023-05-19T11:37:47.948Z,23.61
2023-05-19T11:38:47.846Z,23.47
2023-05-19T11:39:47.975Z,23.49
2023-05-19T11:40:47.833Z,23.61
2023-05-19T11:41:47.890Z,23.42
2023-05-19T11:42:47.900Z,22.95
2023-05-19T11:43:47.874Z,22.99
2023-05-19T11:44:47.914Z,22.99
2023-05-19T11:45:47.949Z,23.14
2023-05-19T11:46:48.095Z,23.09
2023-05-19T11:48:01.249Z,22.91
2023-05-19T11:48:48.835Z,22.85
2023-05-19T11:49:47.827Z,22.39
2023-05-19T11:50:47.831Z,22.34
2023-05-19T11:51:47.850Z,22.60
2023-05-19T11:52:47.845Z,22.67
2023-05-19T11:53:47.835Z,22.85
2023-05-19T11:54:47.754Z,22.88
2023-05-19T11:55:48.095Z,23.12
2023-05-19T11:56:47.771Z,23.20
2023-05-19T11:58:02.583Z,23.13
2023-05-19T11:58:48.816Z,22.93
2023-05-19T11:59:47.774Z,22.95
2023-05-19T12:00:48.182Z,23.06
2023-05-19T12:01:47.689Z,22.74
2023-05-19T12:02:47.816Z,22.85
2023-05-19T12:03:47.898Z,22.97
2023-05-19T12:04:47.712Z,23.03
2023-05-19T12:05:48.239Z,22.52
2023-05-19T12:06:47.770Z,22.24
2023-05-19T12:07:47.734Z,22.46
2023-05-19T12:08:47.726Z,22.70
2023-05-19T12:09:47.810Z,22.99
2023-05-19T12:10:47.853Z,23.19
2023-05-19T12:11:47.861Z,23.20
2023-05-19T12:12:47.886Z,23.35
2023-05-19T12:13:47.975Z,23.21
2023-05-19T12:14:47.974Z,23.08
2023-05-19T12:15:48.045Z,23.14
2023-05-19T12:16:48.176Z,23.18
2023-05-19T12:17:48.230Z,23.36
2023-05-19T12:18:48.228Z,23.45
2023-05-19T12:19:48.231Z,23.23
2023-05-19T12:20:48.249Z,23.10
2023-05-19T12:21:48.282Z,23.17
2023-05-19T12:22:48.351Z,23.23
2023-05-19T12:23:48.452Z,23.47
2023-05-19T12:24:48.457Z,23.64
2023-05-19T12:25:48.478Z,23.58
2023-05-19T12:26:48.485Z,23.57
2023-05-19T12:27:48.537Z,23.72
2023-05-19T12:28:48.502Z,23.75
2023-05-19T12:29:48.593Z,23.92
2023-05-19T12:30:48.601Z,24.06
2023-05-19T12:31:48.622Z,24.11
2023-05-19T12:32:48.669Z,24.03
2023-05-19T12:33:48.728Z,23.99
2023-05-19T12:34:48.682Z,24.12
2023-05-19T12:35:48.744Z,24.23
2023-05-19T12:36:48.801Z,24.38
2023-05-19T12:37:48.862Z,24.42
2023-05-19T12:38:48.863Z,24.28
2023-05-19T12:39:48.830Z,24.29
2023-05-19T12:40:48.917Z,24.36
2023-05-19T12:41:48.887Z,24.36
2023-05-19T12:42:48.965Z,24.34
2023-05-19T12:43:48.917Z,24.33
2023-05-19T12:44:49.025Z,24.37
2023-05-19T12:45:48.987Z,24.28
2023-05-19T12:46:49.129Z,24.08
2023-05-19T12:47:49.295Z,24.15
2023-05-19T12:48:49.152Z,24.18
2023-05-19T12:49:49.159Z,24.23
2023-05-19T12:50:49.261Z,24.21
2023-05-19T12:51:49.275Z,24.21
2023-05-19T12:52:49.367Z,24.21
2023-05-19T12:53:49.391Z,24.33